Time;durP1;ratioP1;P1;durP2;ratioP2;P2;SDS_P1;SDS_P2;PMS_P1;PMS_P2;Temp;Humidity;BMP_temperature;BMP_pressure;BME280_temperature;BME280_humidity;BME280_pressure;Samples;Min_cycle;Max_cycle;Signal;HPM_P1;HPM_P2
2022/11/17 00:01:17;;;;;;;2.80;1.25;;;21.30;52.50;;;;;;6250745;28;20044;-37
2022/11/17 00:04:25;;;;;;;3.03;0.80;;;21.10;52.70;;;;;;6242693;28;20049;-37
2022/11/17 00:07:33;;;;;;;2.05;0.90;;;20.70;52.50;;;;;;6240865;28;20047;-37
2022/11/17 00:10:42;;;;;;;2.38;0.80;;;21.30;52.30;;;;;;6245074;28;20040;-37
2022/11/17 00:17:14;;;;;;;1.50;0.70;;;20.90;52.80;;;;;;6265225;22;20074;-37
2022/11/17 00:27:06;;;;;;;2.03;1.15;;;21.20;53.10;;;;;;6236056;28;20099;-37
2022/11/17 00:36:55;;;;;;;1.80;0.90;;;20.80;52.90;;;;;;6251068;28;20050;-37
2022/11/17 00:40:13;;;;;;;3.35;1.08;;;20.80;53.50;;;;;;6229436;28;20051;-37
2022/11/17 00:43:24;;;;;;;2.33;0.95;;;21.20;53.10;;;;;;6254213;28;20111;-37
2022/11/17 00:46:38;;;;;;;2.75;1.00;;;21.20;53.10;;;;;;6248316;28;20045;-37
2022/11/17 00:49:50;;;;;;;2.72;0.88;;;21.30;53.00;;;;;;6254694;28;20113;-36
2022/11/17 00:52:58;;;;;;;2.22;1.02;;;21.20;53.00;;;;;;6253610;28;20153;-37
2022/11/17 00:56:05;;;;;;;2.60;1.00;;;20.80;52.70;;;;;;6259173;28;20042;-37
2022/11/17 00:59:11;;;;;;;2.65;1.23;;;20.60;52.40;;;;;;6255574;28;20163;-37
2022/11/17 01:02:17;;;;;;;2.78;1.10;;;20.90;52.70;;;;;;6250775;28;20119;-37
2022/11/17 01:05:29;;;;;;;1.98;1.02;;;21.20;52.80;;;;;;6254777;28;20148;-37
2022/11/17 01:08:49;;;;;;;2.58;0.88;;;21.30;52.80;;;;;;6253840;28;20056;-37
2022/11/17 01:11:56;;;;;;;2.67;1.30;;;21.10;52.50;;;;;;6240657;28;20082;-40
2022/11/17 01:15:00;;;;;;;3.03;1.08;;;21.10;52.60;;;;;;6258357;28;20048;-36
2022/11/17 01:18:11;;;;;;;4.60;1.17;;;21.20;52.50;;;;;;6235518;28;20059;-37
2022/11/17 01:21:18;;;;;;;2.88;1.20;;;20.80;52.50;;;;;;6258743;28;20063;-36
2022/11/17 01:24:28;;;;;;;2.38;1.00;;;21.20;52.70;;;;;;6236639;28;20064;-36
2022/11/17 01:27:41;;;;;;;4.05;1.20;;;21.10;52.70;;;;;;6252111;28;20791;-36
2022/11/17 01:30:45;;;;;;;1.90;0.75;;;20.70;52.50;;;;;;6260074;28;20047;-37
2022/11/17 01:34:00;;;;;;;1.98;0.90;;;20.80;52.50;;;;;;6255171;28;20150;-37
2022/11/17 01:43:49;;;;;;;;;;;20.70;52.40;;;;;;6257900;28;20047;-37
2022/11/17 01:46:57;;;;;;;3.65;1.17;;;21.20;53.00;;;;;;6262871;28;19940;-37
2022/11/17 01:50:39;;;;;;;2.00;0.80;;;21.20;52.70;;;;;;6258708;28;20051;-37
2022/11/17 01:53:50;;;;;;;2.45;1.00;;;20.80;52.40;;;;;;6242636;28;20056;-37
2022/11/17 01:57:11;;;;;;;2.33;1.27;;;20.80;52.40;;;;;;6257283;28;20041;-36
2022/11/17 02:00:41;;;;;;;2.95;1.10;;;20.80;52.20;;;;;;6258906;28;20048;-37
2022/11/17 02:03:52;;;;;;;2.38;0.90;;;21.10;52.40;;;;;;6256965;28;20058;-37
2022/11/17 02:07:04;;;;;;;2.35;0.75;;;21.20;52.40;;;;;;6252975;28;20036;-37
2022/11/17 02:10:20;;;;;;;1.77;1.02;;;20.80;51.80;;;;;;6254098;28;20084;-37
2022/11/17 02:13:29;;;;;;;1.83;0.70;;;21.10;52.10;;;;;;6257952;28;20733;-37
2022/11/17 02:16:40;;;;;;;1.90;0.80;;;20.80;51.90;;;;;;6253031;28;20051;-37
2022/11/17 02:19:51;;;;;;;1.10;0.50;;;21.20;52.10;;;;;;6256039;28;20697;-37
2022/11/17 02:23:14;;;;;;;1.33;0.50;;;21.20;52.10;;;;;;6250380;28;20124;-37
2022/11/17 02:26:38;;;;;;;1.63;0.88;;;21.10;52.10;;;;;;6251276;28;20507;-37
2022/11/17 02:30:00;;;;;;;1.58;0.60;;;21.00;51.80;;;;;;6251892;28;20047;-38
2022/11/17 02:33:28;;;;;;;1.33;0.60;;;21.10;51.60;;;;;;6255571;28;20928;-37
2022/11/17 02:36:43;;;;;;;1.48;0.40;;;20.90;51.80;;;;;;6259228;28;20925;-37
2022/11/17 02:39:55;;;;;;;1.52;0.82;;;21.10;51.90;;;;;;6242879;28;20388;-37
2022/11/17 02:46:35;;;;;;;1.27;0.52;;;20.90;51.80;;;;;;6245684;28;20047;-37
2022/11/17 02:49:56;;;;;;;1.50;0.40;;;20.90;51.80;;;;;;6243522;28;20048;-37
2022/11/17 02:53:11;;;;;;;1.40;0.52;;;21.10;51.80;;;;;;6255429;28;20190;-37
2022/11/17 02:56:27;;;;;;;1.05;0.50;;;20.90;51.80;;;;;;6249527;28;20470;-37
2022/11/17 02:59:33;;;;;;;1.58;0.70;;;20.90;51.80;;;;;;6252861;28;20250;-36
2022/11/17 03:03:03;;;;;;;1.05;0.40;;;21.00;51.70;;;;;;6242309;28;20253;-36
2022/11/17 03:06:26;;;;;;;1.40;0.68;;;21.10;51.90;;;;;;6254676;28;20052;-37
2022/11/17 03:09:44;;;;;;;0.85;0.50;;;20.70;51.60;;;;;;6255924;28;20593;-37
2022/11/17 03:13:00;;;;;;;1.00;0.30;;;20.80;51.70;;;;;;6254089;28;20463;-37
2022/11/17 03:16:17;;;;;;;1.17;0.40;;;20.50;51.50;;;;;;6262300;28;20537;-37
2022/11/17 03:19:40;;;;;;;0.77;0.30;;;21.10;51.80;;;;;;6258222;28;20577;-37
2022/11/17 03:23:05;;;;;;;0.70;0.40;;;21.10;51.90;;;;;;6256490;28;20975;-37
2022/11/17 03:26:29;;;;;;;0.40;0.20;;;21.00;51.90;;;;;;6260120;28;20195;-37
2022/11/17 03:29:49;;;;;;;0.47;0.35;;;20.90;52.00;;;;;;6236651;28;20035;-36
2022/11/17 03:33:11;;;;;;;0.98;0.40;;;21.20;52.20;;;;;;6243602;28;20041;-37
2022/11/17 03:36:37;;;;;;;0.32;0.25;;;21.10;52.20;;;;;;6242401;28;20310;-37
2022/11/17 03:39:52;;;;;;;0.60;0.30;;;20.80;52.10;;;;;;6258964;28;20506;-37
2022/11/17 03:43:00;;;;;;;0.63;0.30;;;21.00;52.20;;;;;;6257929;28;20513;-37
2022/11/17 03:49:51;;;;;;;0.50;0.20;;;21.00;52.30;;;;;;6243257;28;20491;-36
2022/11/17 03:53:05;;;;;;;0.60;0.20;;;20.60;52.10;;;;;;6239992;28;20050;-37
2022/11/17 03:56:30;;;;;;;0.52;0.20;;;20.80;52.20;;;;;;6253569;28;20047;-37
2022/11/17 03:59:49;;;;;;;0.47;0.13;;;20.90;52.30;;;;;;6257657;28;20553;-37
2022/11/17 04:02:59;;;;;;;0.63;0.20;;;21.10;52.80;;;;;;6235790;28;20294;-37
2022/11/17 04:06:04;;;;;;;1.33;0.30;;;21.00;52.10;;;;;;6248388;28;20488;-37
2022/11/17 04:09:22;;;;;;;0.85;0.40;;;21.00;52.40;;;;;;6247550;28;20135;-37
2022/11/17 04:15:57;;;;;;;0.35;0.20;;;20.90;66.60;;;;;;6254542;28;20051;-35
2022/11/17 04:19:02;;;;;;;0.50;0.38;;;20.80;52.40;;;;;;6254340;28;20044;-35
2022/11/17 04:22:09;;;;;;;0.80;0.40;;;21.10;52.60;;;;;;6257971;28;20466;-36
2022/11/17 04:28:35;;;;;;;0.30;0.20;;;21.20;52.70;;;;;;6254299;28;20028;-35
2022/11/17 04:28:45;;;;;;;0.45;0.20;;;21.10;52.60;;;;;;6239952;28;20090;-37
2022/11/17 04:31:54;;;;;;;0.40;0.20;;;21.00;52.50;;;;;;6237424;28;20040;-37
2022/11/17 04:35:09;;;;;;;0.45;0.20;;;20.70;52.30;;;;;;6250617;28;20395;-37
2022/11/17 04:38:24;;;;;;;0.20;0.20;;;20.80;52.20;;;;;;6253336;28;20296;-37
2022/11/17 04:44:55;;;;;;;0.50;0.30;;;20.70;51.80;;;;;;6254777;28;20450;-37
2022/11/17 04:48:12;;;;;;;1.17;0.55;;;21.10;52.10;;;;;;6249406;28;20036;-37
2022/11/17 04:51:31;;;;;;;0.93;0.38;;;21.00;51.90;;;;;;6251756;28;20071;-37
2022/11/17 04:54:43;;;;;;;0.90;0.30;;;20.80;51.80;;;;;;6253242;28;20151;-37
2022/11/17 04:57:48;;;;;;;0.40;0.30;;;20.70;51.80;;;;;;6258024;28;20047;-36
2022/11/17 05:01:11;;;;;;;0.80;0.47;;;21.00;51.90;;;;;;6261891;28;20839;-37
2022/11/17 05:07:44;;;;;;;1.02;0.45;;;20.80;51.80;;;;;;6226485;28;20471;-37
2022/11/17 05:14:42;;;;;;;0.45;0.20;;;20.80;51.60;;;;;;6243566;28;20499;-37
2022/11/17 05:18:30;;;;;;;0.88;0.30;;;21.00;51.70;;;;;;6257970;28;20116;-37
2022/11/17 05:21:49;;;;;;;1.60;0.30;;;21.00;51.70;;;;;;6238944;28;20209;-37
2022/11/17 05:25:22;;;;;;;0.90;0.40;;;21.00;51.70;;;;;;6249676;28;20183;-37
2022/11/17 05:28:33;;;;;;;1.55;0.73;;;21.00;51.70;;;;;;6241130;28;20382;-38
2022/11/17 05:31:48;;;;;;;;;;;21.10;51.80;;;;;;6249962;28;20083;-37
2022/11/17 05:35:02;;;;;;;3.80;1.83;;;20.40;51.70;;;;;;6250435;28;20145;-37
2022/11/17 05:38:08;;;;;;;4.93;2.22;;;20.50;51.60;;;;;;6256745;28;20048;-37
2022/11/17 05:41:13;;;;;;;5.65;2.55;;;20.90;51.90;;;;;;6256476;28;20036;-36
2022/11/17 05:44:31;;;;;;;6.60;3.00;;;21.10;51.80;;;;;;6232777;28;20325;-37
2022/11/17 05:47:42;;;;;;;6.20;3.13;;;20.90;51.90;;;;;;6247647;28;20422;-37
2022/11/17 05:50:57;;;;;;;8.43;3.88;;;20.80;51.80;;;;;;6245952;28;20040;-36
2022/11/17 05:54:19;;;;;;;8.10;3.45;;;20.90;52.10;;;;;;6227842;28;20052;-37
2022/11/17 05:57:34;;;;;;;7.55;3.60;;;20.50;51.80;;;;;;6246552;28;20053;-37
2022/11/17 06:00:42;;;;;;;7.50;3.50;;;20.50;51.90;;;;;;6243211;28;20507;-38
2022/11/17 06:04:05;;;;;;;5.93;3.30;;;20.70;52.10;;;;;;6241911;28;20064;-37
2022/11/17 06:07:11;;;;;;;9.23;4.88;;;20.90;52.30;;;;;;6253610;28;21101;-37
2022/11/17 06:10:30;;;;;;;9.32;4.63;;;20.90;52.30;;;;;;6250855;28;20143;-38
2022/11/17 06:13:40;;;;;;;10.65;5.18;;;20.80;52.00;;;;;;6234710;28;20052;-37
2022/11/17 06:17:04;;;;;;;12.30;6.05;;;20.90;52.30;;;;;;6248428;28;20943;-37
2022/11/17 06:20:26;;;;;;;11.93;5.90;;;20.90;52.10;;;;;;6248336;28;20036;-36
2022/11/17 06:23:38;;;;;;;10.48;5.30;;;20.80;52.30;;;;;;6247918;28;20037;-37
2022/11/17 06:26:57;;;;;;;11.10;5.53;;;20.70;52.20;;;;;;6219229;28;20504;-37
2022/11/17 06:33:45;;;;;;;9.40;4.90;;;21.10;52.40;;;;;;6225765;28;20055;-37
2022/11/17 06:37:00;;;;;;;7.70;4.18;;;21.00;52.40;;;;;;6245606;28;20163;-37
2022/11/17 06:40:08;;;;;;;10.05;4.85;;;20.80;52.30;;;;;;6240777;28;20125;-37
2022/11/17 06:43:31;;;;;;;9.30;4.50;;;21.00;52.20;;;;;;6245102;28;20032;-39
2022/11/17 06:46:41;;;;;;;8.38;4.00;;;20.90;52.10;;;;;;6237510;28;20822;-37
2022/11/17 06:49:54;;;;;;;7.50;3.88;;;20.70;51.80;;;;;;6243056;28;20035;-37
2022/11/17 06:53:18;;;;;;;5.60;3.15;;;20.50;51.90;;;;;;6234413;28;20033;-38
2022/11/17 06:56:36;;;;;;;7.03;3.40;;;20.50;51.90;;;;;;6215960;28;20046;-36
2022/11/17 07:03:31;;;;;;;5.20;2.45;;;21.00;52.10;;;;;;6204677;28;20044;-37
2022/11/17 07:06:43;;;;;;;4.70;2.03;;;21.10;52.10;;;;;;6224033;28;20971;-39
2022/11/17 07:10:03;;;;;;;3.97;2.15;;;20.50;51.70;;;;;;6218486;28;20154;-38
2022/11/17 07:13:22;;;;;;;2.97;1.75;;;20.60;51.70;;;;;;6227296;28;20153;-38
2022/11/17 07:16:55;;;;;;;2.97;1.50;;;20.40;51.60;;;;;;6226472;28;20072;-38
2022/11/17 07:20:36;;;;;;;2.17;1.30;;;20.80;51.80;;;;;;6182995;28;20129;-38
2022/11/17 07:23:52;;;;;;;1.60;1.00;;;20.80;51.80;;;;;;6184054;28;20182;-37
2022/11/17 07:27:05;;;;;;;2.20;0.80;;;20.70;51.70;;;;;;6203814;28;20052;-38
2022/11/17 07:37:54;;;;;;;1.50;0.70;;;21.00;52.00;;;;;;6139777;28;20192;-38
2022/11/17 07:41:12;;;;;;;1.33;0.80;;;21.20;51.90;;;;;;6163993;28;21915;-38
2022/11/17 07:44:51;;;;;;;1.42;0.60;;;20.70;51.70;;;;;;6162002;28;20086;-38
2022/11/17 07:48:33;;;;;;;0.80;0.47;;;20.80;51.80;;;;;;4802735;28;21151;-38
2022/11/17 08:00:48;;;;;;;3.45;0.63;;;20.80;50.90;;;;;;3523591;28;21103;-39
2022/11/17 08:04:10;;;;;;;0.70;0.47;;;19.80;50.80;;;;;;3768154;28;21548;-39
2022/11/17 08:07:41;;;;;;;0.93;0.60;;;20.70;52.30;;;;;;5764123;28;20111;-39
2022/11/17 08:11:00;;;;;;;0.60;0.40;;;21.00;52.10;;;;;;5563853;28;22512;-39
2022/11/17 08:15:31;;;;;;;2.20;0.50;;;20.70;51.90;;;;;;3503429;28;22021;-37
2022/11/17 08:19:03;;;;;;;;;;;20.40;50.70;;;;;;5258479;28;21539;-37
2022/11/17 08:27:33;;;;;;;0.50;0.30;;;20.50;50.70;;;;;;3741731;28;22670;-40
2022/11/17 09:13:04;;;;;;;3.13;1.75;;;20.90;50.20;;;;;;3115677;28;23995;-52
2022/11/17 09:17:03;;;;;;;4.07;1.60;;;20.90;50.20;;;;;;3189201;28;22232;-46
2022/11/17 09:25:10;;;;;;;2.60;1.20;;;21.30;50.40;;;;;;3382438;28;22066;-56
2022/11/17 09:28:57;;;;;;;3.95;1.08;;;20.90;50.30;;;;;;3616111;28;21161;-46
2022/11/17 09:32:27;;;;;;;1.92;1.10;;;21.50;51.00;;;;;;3660299;28;22104;-46
2022/11/17 09:36:02;;;;;;;1.42;0.75;;;21.20;50.60;;;;;;3642011;28;23445;-45
2022/11/17 09:39:25;;;;;;;1.55;0.65;;;21.30;50.50;;;;;;3647295;28;22151;-47
2022/11/17 09:42:51;;;;;;;1.33;0.47;;;21.40;50.80;;;;;;3713342;28;21026;-46
2022/11/17 09:46:14;;;;;;;1.30;0.50;;;21.50;50.70;;;;;;5845460;28;20058;-48
2022/11/17 09:49:26;;;;;;;1.90;0.60;;;21.50;51.30;;;;;;5812131;28;20276;-50
2022/11/17 09:52:34;;;;;;;0.80;0.40;;;21.30;50.60;;;;;;5857068;28;20065;-46
2022/11/17 09:55:38;;;;;;;0.90;0.50;;;21.50;50.70;;;;;;5841027;28;20211;-46
2022/11/17 09:58:47;;;;;;;1.25;0.50;;;21.20;50.50;;;;;;5855811;28;21597;-45
2022/11/17 10:01:49;;;;;;;0.63;0.38;;;21.30;50.60;;;;;;5883856;28;21162;-46
2022/11/17 10:04:51;;;;;;;1.48;0.45;;;21.20;50.60;;;;;;5851148;28;22679;-47
2022/11/17 10:07:54;;;;;;;;;;;21.50;50.70;;;;;;5863839;28;20127;-47
2022/11/17 10:10:56;;;;;;;1.83;0.40;;;21.60;50.90;;;;;;5876153;28;20000;-51
2022/11/17 10:14:01;;;;;;;0.95;0.50;;;21.50;50.90;;;;;;5887475;28;20053;-50
2022/11/17 10:17:03;;;;;;;1.52;0.40;;;21.50;51.00;;;;;;5929789;28;20042;-48
2022/11/17 10:20:14;;;;;;;0.50;0.40;;;21.30;50.60;;;;;;5937305;28;20167;-46
2022/11/17 10:23:37;;;;;;;1.55;0.65;;;21.50;50.70;;;;;;5861497;28;20984;-46
2022/11/17 10:26:48;;;;;;;0.85;0.40;;;21.50;51.00;;;;;;5934127;28;20056;-46
2022/11/17 10:30:00;;;;;;;0.77;0.22;;;21.60;50.70;;;;;;5930410;28;20121;-46
2022/11/17 10:33:04;;;;;;;1.10;0.45;;;21.50;50.50;;;;;;4775546;28;20049;-43
2022/11/17 10:40:20;;;;;;;0.38;0.22;;;21.10;50.10;;;;;;5586061;28;22965;-46
2022/11/17 10:43:28;;;;;;;0.90;0.32;;;21.60;50.40;;;;;;5902441;28;20050;-50
2022/11/17 10:46:30;;;;;;;0.32;0.15;;;21.60;50.30;;;;;;5923969;28;20473;-47
2022/11/17 10:49:46;;;;;;;0.50;0.30;;;21.30;49.90;;;;;;5904015;28;20140;-53
2022/11/17 10:52:50;;;;;;;0.30;0.20;;;21.70;50.00;;;;;;5921000;28;21195;-47
2022/11/17 10:55:57;;;;;;;0.17;0.13;;;21.60;50.00;;;;;;5890337;28;20058;-49
2022/11/17 10:59:03;;;;;;;0.73;0.20;;;21.50;49.70;;;;;;5881548;28;20045;-49
2022/11/17 11:02:26;;;;;;;0.40;0.20;;;21.60;49.80;;;;;;5855417;28;21033;-46
2022/11/17 11:05:29;;;;;;;0.35;0.28;;;21.80;49.70;;;;;;5901383;28;20053;-47
2022/11/17 11:08:37;;;;;;;0.40;0.30;;;21.50;49.60;;;;;;5915316;28;20046;-45
2022/11/17 11:11:43;;;;;;;0.30;0.20;;;21.60;50.10;;;;;;5938424;28;22874;-46
2022/11/17 11:14:50;;;;;;;0.30;0.22;;;21.60;49.50;;;;;;5983538;28;29300;-48
2022/11/17 11:17:56;;;;;;;0.22;0.20;;;21.40;49.20;;;;;;5994958;28;20044;-45
2022/11/17 11:21:06;;;;;;;;;;;21.80;49.40;;;;;;6024808;28;22274;-45
2022/11/17 11:24:14;;;;;;;0.38;0.20;;;21.60;49.30;;;;;;6002941;28;19931;-46
2022/11/17 11:27:36;;;;;;;0.30;0.20;;;21.10;49.00;;;;;;6013955;28;20145;-47
2022/11/17 11:30:41;;;;;;;;;;;21.50;49.10;;;;;;6013159;28;20182;-46
2022/11/17 11:33:49;;;;;;;0.50;0.25;;;21.50;49.20;;;;;;6024848;28;20001;-49
2022/11/17 11:36:55;;;;;;;0.32;0.20;;;21.30;49.00;;;;;;6027481;28;20043;-46
2022/11/17 11:40:08;;;;;;;0.30;0.20;;;21.50;49.10;;;;;;6058035;28;20132;-45
2022/11/17 11:43:28;;;;;;;0.17;0.10;;;21.30;48.90;;;;;;6066236;28;20912;-45
2022/11/17 11:46:39;;;;;;;0.25;0.20;;;21.80;49.00;;;;;;6061991;28;20248;-45
2022/11/17 11:49:47;;;;;;;0.60;0.20;;;21.50;48.70;;;;;;6088667;28;20051;-47
2022/11/17 11:52:55;;;;;;;0.20;0.10;;;21.60;48.90;;;;;;6086478;28;20040;-47
2022/11/17 12:00:29;;;;;;;0.85;0.30;;;21.20;48.30;;;;;;3626196;28;24754;-44
2022/11/17 12:03:39;;;;;;;0.40;0.20;;;21.10;48.30;;;;;;6056414;28;20083;-44
2022/11/17 12:06:52;;;;;;;0.25;0.13;;;21.60;48.60;;;;;;4814382;28;22035;-47
2022/11/17 12:10:06;;;;;;;0.38;0.30;;;21.60;48.50;;;;;;3841038;28;21985;-45
2022/11/17 12:13:13;;;;;;;0.32;0.20;;;21.20;48.60;;;;;;5082402;28;20808;-47
2022/11/17 12:16:16;;;;;;;0.22;0.13;;;22.10;49.00;;;;;;6093158;28;20151;-47
2022/11/17 12:19:46;;;;;;;0.20;0.20;;;21.60;48.60;;;;;;6066388;28;20997;-43
2022/11/17 12:22:58;;;;;;;0.38;0.20;;;21.80;48.60;;;;;;6097673;28;20052;-44
2022/11/17 12:26:01;;;;;;;0.65;0.13;;;21.30;48.30;;;;;;6092411;28;20171;-44
2022/11/17 12:29:27;;;;;;;0.20;0.20;;;21.50;48.30;;;;;;6098544;28;20905;-44
2022/11/17 12:32:51;;;;;;;2.65;0.43;;;21.70;48.40;;;;;;6080890;28;20040;-45
2022/11/17 12:36:15;;;;;;;0.50;0.20;;;21.70;48.30;;;;;;6075878;28;28699;-46
2022/11/17 12:39:46;;;;;;;0.13;0.10;;;21.90;48.30;;;;;;6103739;28;22202;-47
2022/11/17 12:43:12;;;;;;;0.45;0.13;;;21.70;48.10;;;;;;6051042;28;20187;-46
2022/11/17 12:46:25;;;;;;;0.40;0.15;;;21.70;48.20;;;;;;6049435;28;20048;-49
2022/11/17 12:49:35;;;;;;;0.10;0.10;;;21.70;48.00;;;;;;6071430;28;20048;-46
2022/11/17 12:52:49;;;;;;;0.80;0.20;;;21.70;48.00;;;;;;5247857;28;20047;-49
2022/11/17 12:56:07;;;;;;;0.50;0.20;;;21.70;47.90;;;;;;6023719;28;20130;-51
2022/11/17 12:59:32;;;;;;;0.52;0.15;;;21.40;47.80;;;;;;6006620;28;20047;-47
2022/11/17 13:02:52;;;;;;;0.30;0.20;;;21.60;47.90;;;;;;5948694;28;35514;-52
2022/11/17 13:06:06;;;;;;;0.65;0.20;;;21.80;47.90;;;;;;5931176;28;20048;-49
2022/11/17 13:09:30;;;;;;;0.57;0.20;;;22.00;48.10;;;;;;5967676;28;20052;-51
2022/11/17 13:12:33;;;;;;;0.20;0.20;;;21.60;47.90;;;;;;5956579;28;20946;-49
2022/11/17 13:15:36;;;;;;;0.70;0.20;;;21.70;48.00;;;;;;6001142;28;20040;-52
2022/11/17 13:18:40;;;;;;;0.45;0.25;;;21.80;48.70;;;;;;5910396;28;20057;-52
2022/11/17 13:21:44;;;;;;;1.85;0.22;;;21.60;48.00;;;;;;5921277;28;20145;-49
2022/11/17 13:24:48;;;;;;;0.30;0.20;;;21.80;48.20;;;;;;5982735;28;20385;-48
2022/11/17 13:27:49;;;;;;;0.20;0.17;;;21.50;48.00;;;;;;5968695;28;20051;-47
2022/11/17 13:31:00;;;;;;;0.30;0.20;;;21.80;48.20;;;;;;5966041;28;20055;-50
2022/11/17 13:34:06;;;;;;;0.43;0.20;;;21.80;48.30;;;;;;5928264;28;20040;-49
2022/11/17 13:37:15;;;;;;;0.20;0.20;;;21.80;48.30;;;;;;5942222;28;20192;-50
2022/11/17 13:40:20;;;;;;;0.40;0.17;;;21.50;48.10;;;;;;5964371;28;20052;-51
2022/11/17 13:43:25;;;;;;;0.22;0.10;;;21.80;48.40;;;;;;5986202;28;21265;-49
2022/11/17 13:46:26;;;;;;;0.10;0.10;;;21.80;48.50;;;;;;6002140;22;20080;-48
2022/11/17 13:49:32;;;;;;;0.80;0.30;;;22.00;48.60;;;;;;5942102;28;20043;-49
2022/11/17 13:52:36;;;;;;;0.88;0.25;;;21.60;48.50;;;;;;5961776;28;20048;-49
2022/11/17 13:55:46;;;;;;;0.20;0.10;;;21.80;48.70;;;;;;5978229;28;20056;-44
2022/11/17 13:58:50;;;;;;;0.65;0.10;;;21.50;48.60;;;;;;5894041;28;20155;-45
2022/11/17 14:02:21;;;;;;;0.15;0.15;;;21.50;48.40;;;;;;5905881;28;20053;-49
2022/11/17 14:05:26;;;;;;;0.70;0.10;;;21.90;48.40;;;;;;5933690;28;20052;-45
2022/11/17 14:08:30;;;;;;;0.20;0.10;;;21.90;48.20;;;;;;5906641;28;20037;-47
2022/11/17 14:11:32;;;;;;;0.20;0.15;;;21.70;47.90;;;;;;5922427;28;21162;-46
2022/11/17 14:14:40;;;;;;;0.80;0.35;;;21.80;47.70;;;;;;5958614;28;20416;-47
2022/11/17 14:17:48;;;;;;;0.32;0.15;;;21.80;47.50;;;;;;5134774;28;20044;-47
2022/11/17 14:21:22;;;;;;;0.28;0.20;;;21.70;47.20;;;;;;4390036;28;21994;-45
2022/11/17 14:24:55;;;;;;;0.20;0.10;;;21.90;47.30;;;;;;4062056;28;20051;-48
2022/11/17 14:28:32;;;;;;;0.50;0.10;;;22.10;47.50;;;;;;4675207;28;21478;-46
2022/11/17 14:32:11;;;;;;;0.25;0.15;;;21.90;47.10;;;;;;3563404;28;23066;-47
2022/11/17 14:35:23;;;;;;;0.57;0.20;;;22.10;47.20;;;;;;5168741;28;21345;-51
2022/11/17 14:38:47;;;;;;;0.50;0.22;;;21.90;47.00;;;;;;3518340;28;21245;-45
2022/11/17 14:41:58;;;;;;;0.73;0.38;;;21.70;46.70;;;;;;3601743;28;22348;-47
2022/11/17 14:46:42;;;;;;;0.73;0.20;;;21.90;47.00;;;;;;3534179;28;21185;-46
2022/11/17 14:49:54;;;;;;;0.30;0.30;;;22.10;47.10;;;;;;4782519;28;20070;-46
2022/11/17 14:52:56;;;;;;;0.25;0.10;;;22.00;47.00;;;;;;4354328;28;20127;-49
2022/11/17 14:56:04;;;;;;;;;;;22.00;47.00;;;;;;5875245;28;22101;-47
2022/11/17 14:59:07;;;;;;;0.75;0.20;;;22.00;47.10;;;;;;5895856;28;21366;-48
2022/11/17 15:02:09;;;;;;;0.20;0.20;;;22.10;47.20;;;;;;5902569;28;20057;-48
2022/11/17 15:05:56;;;;;;;0.13;0.10;;;22.00;47.20;;;;;;3269231;28;22145;-50
2022/11/17 15:18:53;;;;;;;0.20;0.10;;;21.50;47.60;;;;;;5098767;28;23617;-48
2022/11/17 15:26:59;;;;;;;0.40;0.20;;;22.00;47.50;;;;;;3359690;28;20054;-51
2022/11/17 15:30:03;;;;;;;1.20;0.30;;;22.00;47.50;;;;;;3257005;28;25120;-46
2022/11/17 15:33:05;;;;;;;0.10;0.10;;;21.80;47.70;;;;;;4914539;28;21626;-45
2022/11/17 15:36:09;;;;;;;;;;;22.20;47.70;;;;;;4632104;28;22146;-45
2022/11/17 15:39:13;;;;;;;1.20;0.20;;;22.20;47.90;;;;;;4757333;28;21221;-47
2022/11/17 15:42:15;;;;;;;1.80;0.17;;;22.00;47.80;;;;;;5921993;28;22992;-46
2022/11/17 15:45:17;;;;;;;2.15;0.20;;;22.10;47.80;;;;;;5886290;28;20122;-51
2022/11/17 15:48:18;;;;;;;0.17;0.10;;;22.10;47.80;;;;;;5921478;28;26978;-45
2022/11/17 15:51:23;;;;;;;4.03;0.40;;;22.00;47.90;;;;;;5934396;28;20067;-46
2022/11/17 15:54:26;;;;;;;0.28;0.20;;;22.20;47.90;;;;;;5975632;28;20126;-48
2022/11/17 15:57:29;;;;;;;0.50;0.20;;;22.30;48.10;;;;;;5959751;28;20044;-47
2022/11/17 16:00:32;;;;;;;1.13;0.20;;;22.10;48.00;;;;;;5969220;28;20052;-48
2022/11/17 16:03:34;;;;;;;0.60;0.20;;;22.30;48.10;;;;;;5941101;28;20133;-46
2022/11/17 16:06:39;;;;;;;0.55;0.10;;;22.20;48.10;;;;;;5893900;28;20048;-46
2022/11/17 16:09:40;;;;;;;0.10;0.10;;;22.20;48.10;;;;;;4679526;28;20125;-45
2022/11/17 16:12:45;;;;;;;0.45;0.20;;;22.20;48.00;;;;;;5920660;28;20036;-48
2022/11/17 16:15:47;;;;;;;0.30;0.20;;;22.20;48.00;;;;;;5980912;28;20049;-47
2022/11/17 16:18:50;;;;;;;0.60;0.28;;;22.40;48.10;;;;;;5593225;28;21247;-52
2022/11/17 16:21:55;;;;;;;0.63;0.28;;;21.90;47.70;;;;;;3608782;28;22542;-46
2022/11/17 16:24:58;;;;;;;0.85;0.10;;;22.30;48.00;;;;;;3838729;28;22477;-47
2022/11/17 16:28:00;;;;;;;0.40;0.20;;;22.20;47.90;;;;;;5964398;28;21398;-48
2022/11/17 16:31:12;;;;;;;0.32;0.20;;;22.30;48.00;;;;;;5973674;28;20053;-51
2022/11/17 16:34:16;;;;;;;1.58;0.20;;;22.30;47.80;;;;;;5944345;28;20036;-46
2022/11/17 16:37:18;;;;;;;0.65;0.20;;;22.40;47.80;;;;;;5994893;28;20159;-49
2022/11/17 16:40:21;;;;;;;0.10;0.10;;;22.40;47.90;;;;;;6032339;28;20053;-55
2022/11/17 16:43:23;;;;;;;0.50;0.20;;;22.30;47.70;;;;;;5683031;28;20236;-52
2022/11/17 16:46:27;;;;;;;;;;;22.00;47.50;;;;;;5935935;28;20115;-47
2022/11/17 16:49:34;;;;;;;0.52;0.20;;;22.30;47.90;;;;;;5251051;28;25730;-48
2022/11/17 16:52:36;;;;;;;0.30;0.20;;;22.30;47.70;;;;;;5995846;28;20207;-50
2022/11/17 16:55:38;;;;;;;0.43;0.32;;;22.30;47.60;;;;;;6003603;28;20040;-52
2022/11/17 16:58:39;;;;;;;0.73;0.17;;;22.40;47.90;;;;;;6021338;28;20044;-49
2022/11/17 17:01:41;;;;;;;0.30;0.20;;;22.30;47.50;;;;;;6038034;28;21108;-46
2022/11/17 17:04:42;;;;;;;0.50;0.30;;;22.00;47.30;;;;;;6051107;28;20090;-50
2022/11/17 17:07:44;;;;;;;;;;;22.30;47.50;;;;;;6056808;28;20033;-45
2022/11/17 17:10:47;;;;;;;0.13;0.10;;;22.30;47.60;;;;;;6076040;28;19928;-49
2022/11/17 17:13:48;;;;;;;0.82;0.20;;;21.70;47.20;;;;;;6044151;28;20973;-51
2022/11/17 17:16:50;;;;;;;0.35;0.22;;;22.40;47.50;;;;;;6053606;28;20040;-52
2022/11/17 17:19:51;;;;;;;;;;;22.40;47.40;;;;;;6075016;28;20179;-47
2022/11/17 17:22:53;;;;;;;1.55;0.25;;;22.30;47.40;;;;;;6095070;28;19928;-52
2022/11/17 17:26:01;;;;;;;0.30;0.20;;;21.90;47.20;;;;;;6095246;28;20048;-54
2022/11/17 17:29:04;;;;;;;0.65;0.30;;;22.30;47.30;;;;;;6113898;28;20176;-53
2022/11/17 17:32:06;;;;;;;0.65;0.30;;;22.10;47.10;;;;;;6101231;28;20050;-52
2022/11/17 17:35:08;;;;;;;;;;;22.50;47.20;;;;;;6119708;28;20051;-53
2022/11/17 17:38:10;;;;;;;0.45;0.10;;;22.40;47.00;;;;;;6111401;28;20037;-53
2022/11/17 17:41:12;;;;;;;0.50;0.38;;;22.10;46.80;;;;;;6144645;28;21067;-60
2022/11/17 17:44:16;;;;;;;1.15;0.20;;;22.10;46.60;;;;;;6107630;28;20041;-52
2022/11/17 17:47:17;;;;;;;0.43;0.30;;;22.40;46.60;;;;;;6130876;28;20921;-53
2022/11/17 17:50:19;;;;;;;;;;;22.40;46.60;;;;;;6137401;28;20238;-52
2022/11/17 17:53:21;;;;;;;0.60;0.20;;;22.80;46.90;;;;;;6119143;28;22108;-51
2022/11/17 17:56:23;;;;;;;0.45;0.10;;;22.50;46.70;;;;;;6122740;28;20140;-49
2022/11/17 17:59:25;;;;;;;0.75;0.20;;;22.30;46.60;;;;;;6110253;28;20162;-50
2022/11/17 18:02:26;;;;;;;0.77;0.22;;;22.30;46.60;;;;;;6126937;28;20071;-51
2022/11/17 18:05:29;;;;;;;;;;;22.00;46.30;;;;;;6122687;28;20151;-53
2022/11/17 18:08:33;;;;;;;0.73;0.20;;;22.60;46.60;;;;;;6149812;28;19928;-53
2022/11/17 18:11:35;;;;;;;0.28;0.28;;;22.30;46.50;;;;;;6143036;28;20413;-53
2022/11/17 18:14:37;;;;;;;1.38;0.20;;;22.20;46.30;;;;;;6180681;28;20174;-53
2022/11/17 18:17:40;;;;;;;0.25;0.15;;;22.20;46.30;;;;;;6178823;28;20044;-53
2022/11/17 18:20:41;;;;;;;0.98;0.20;;;22.30;46.30;;;;;;6182463;28;20052;-54
2022/11/17 18:23:43;;;;;;;;;;;22.30;46.20;;;;;;6183400;28;20147;-53
2022/11/17 18:26:45;;;;;;;0.32;0.20;;;22.20;46.10;;;;;;6182582;28;21100;-51
2022/11/17 18:29:47;;;;;;;0.40;0.20;;;22.30;46.30;;;;;;6194160;28;20103;-51
2022/11/17 18:32:49;;;;;;;0.20;0.20;;;22.10;46.00;;;;;;6179440;28;20041;-52
2022/11/17 18:35:50;;;;;;;;;;;22.20;46.00;;;;;;6200588;28;20033;-51
2022/11/17 18:38:53;;;;;;;0.50;0.20;;;22.10;45.90;;;;;;6191688;28;19928;-52
2022/11/17 18:41:54;;;;;;;0.30;0.30;;;22.30;46.00;;;;;;6203867;28;20040;-51
2022/11/17 18:44:56;;;;;;;0.20;0.20;;;22.00;45.70;;;;;;6202194;28;20082;-53
2022/11/17 18:47:57;;;;;;;;;;;22.30;45.90;;;;;;6193643;28;20148;-48
2022/11/17 18:51:00;;;;;;;0.52;0.30;;;22.30;45.90;;;;;;6194737;28;20705;-47
2022/11/17 18:54:21;;;;;;;0.17;0.10;;;22.40;45.90;;;;;;6195857;28;20056;-48
2022/11/17 18:57:22;;;;;;;0.47;0.28;;;22.00;45.60;;;;;;6198837;28;21391;-47
2022/11/17 19:00:24;;;;;;;0.30;0.20;;;22.20;45.70;;;;;;6206572;28;20308;-47
2022/11/17 19:03:25;;;;;;;0.28;0.10;;;21.90;45.40;;;;;;6207919;28;20517;-47
2022/11/17 19:06:27;;;;;;;;;;;22.30;45.60;;;;;;6204436;28;20813;-47
2022/11/17 19:09:29;;;;;;;0.20;0.20;;;22.20;45.60;;;;;;6199612;28;20083;-47